createdAt,value
2023-02-09T00:01:10.674Z,102454.00
2023-02-09T00:03:38.541Z,102462.00
2023-02-09T00:06:07.985Z,102446.00
2023-02-09T00:08:36.561Z,102444.00
2023-02-09T00:11:52.221Z,102448.00
2023-02-09T00:14:22.090Z,102451.00
2023-02-09T00:16:50.740Z,102417.00
2023-02-09T00:19:20.416Z,102427.00
2023-02-09T00:21:48.736Z,102422.00
2023-02-09T00:24:15.828Z,102420.00
2023-02-09T00:26:42.846Z,102422.00
2023-02-09T00:29:10.249Z,102418.00
2023-02-09T00:31:38.116Z,102410.00
2023-02-09T00:34:05.494Z,102400.00
2023-02-09T00:36:33.284Z,102390.00
2023-02-09T00:39:00.285Z,102335.00
2023-02-09T00:41:46.874Z,102378.00
2023-02-09T00:44:13.785Z,102373.00
2023-02-09T00:46:40.623Z,102374.00
2023-02-09T00:49:07.635Z,102367.00
2023-02-09T00:51:34.665Z,102372.00
2023-02-09T00:54:01.575Z,102362.00
2023-02-09T00:56:28.390Z,102356.00
2023-02-09T00:58:55.255Z,102361.00
2023-02-09T01:01:22.158Z,102358.00
2023-02-09T01:03:49.016Z,102340.00
2023-02-09T01:06:15.911Z,102329.00
2023-02-09T01:08:42.722Z,102328.00
2023-02-09T01:11:12.280Z,102329.00
2023-02-09T01:13:39.648Z,102311.00
2023-02-09T01:16:13.962Z,102269.00
2023-02-09T01:18:41.699Z,102300.00
2023-02-09T01:21:18.369Z,102307.00
2023-02-09T01:23:46.315Z,102301.00
2023-02-09T01:26:15.741Z,102300.00
2023-02-09T01:28:43.299Z,102293.00
2023-02-09T01:31:28.032Z,102278.00
2023-02-09T01:33:58.077Z,102282.00
2023-02-09T01:36:24.994Z,102281.00
2023-02-09T01:38:54.810Z,102280.00
2023-02-09T01:41:22.541Z,102290.00
2023-02-09T01:44:05.023Z,102275.00
2023-02-09T01:46:35.407Z,102261.00
2023-02-09T01:49:13.398Z,102234.00
2023-02-09T01:51:52.027Z,102251.00
2023-02-09T01:54:33.880Z,102196.00
2023-02-09T01:57:09.686Z,102232.00
2023-02-09T01:59:40.452Z,102218.00
2023-02-09T02:02:09.066Z,102214.00
2023-02-09T02:04:37.666Z,102204.00
2023-02-09T02:07:20.716Z,102214.00
2023-02-09T02:09:48.186Z,102211.00
2023-02-09T02:12:15.898Z,102191.00
2023-02-09T02:14:42.753Z,102190.00
2023-02-09T02:17:35.226Z,102198.00
2023-02-09T02:20:33.625Z,102182.00
2023-02-09T02:23:13.078Z,102190.00
2023-02-09T02:26:05.273Z,102186.00
2023-02-09T02:28:55.018Z,102178.00
2023-02-09T02:32:05.906Z,102135.00
2023-02-09T02:34:41.322Z,102166.00
2023-02-09T02:37:25.398Z,102169.00
2023-02-09T02:40:28.117Z,102156.00
2023-02-09T02:43:24.694Z,102164.00
2023-02-09T02:46:26.729Z,102167.00
2023-02-09T02:48:59.996Z,102153.00
2023-02-09T02:51:44.443Z,102147.00
2023-02-09T02:54:34.436Z,102151.00
2023-02-09T02:57:14.938Z,102152.00
2023-02-09T02:59:59.105Z,102103.00
2023-02-09T03:02:38.597Z,102152.00
2023-02-09T03:05:07.704Z,102154.00
2023-02-09T03:07:34.695Z,102138.00
2023-02-09T03:10:03.232Z,102149.00
2023-02-09T03:13:14.579Z,102139.00
2023-02-09T03:15:51.323Z,102150.00
2023-02-09T03:18:33.098Z,102137.00
2023-02-09T03:21:08.050Z,102130.00
2023-02-09T03:24:05.722Z,102132.00
2023-02-09T03:26:49.290Z,102128.00
2023-02-09T03:29:19.861Z,102125.00
2023-02-09T03:31:49.023Z,102083.00
2023-02-09T03:34:16.929Z,102111.00
2023-02-09T03:36:50.291Z,102121.00
2023-02-09T03:39:17.162Z,102121.00
2023-02-09T03:41:44.007Z,102128.00
2023-02-09T03:44:29.257Z,102128.00
2023-02-09T03:47:03.160Z,102122.00
2023-02-09T03:49:39.234Z,102133.00
2023-02-09T03:52:10.242Z,102093.00
2023-02-09T03:54:37.543Z,102128.00
2023-02-09T03:57:05.502Z,102122.00
2023-02-09T03:59:35.494Z,102136.00
2023-02-09T04:02:05.709Z,102119.00
2023-02-09T04:04:32.700Z,102128.00
2023-02-09T04:07:00.016Z,102080.00
2023-02-09T04:09:28.556Z,102110.00
2023-02-09T04:11:55.945Z,102091.00
2023-02-09T04:14:23.047Z,102102.00
2023-02-09T04:16:50.064Z,102084.00
2023-02-09T04:19:17.017Z,102076.00
2023-02-09T04:21:43.944Z,102090.00
2023-02-09T04:24:11.284Z,102074.00
2023-02-09T04:26:38.206Z,102078.00
2023-02-09T04:29:05.229Z,102090.00
2023-02-09T04:31:32.571Z,102076.00
2023-02-09T04:33:59.461Z,102076.00
2023-02-09T04:36:26.282Z,102071.00
2023-02-09T04:38:53.143Z,102069.00
2023-02-09T04:41:20.064Z,102062.00
2023-02-09T04:43:47.637Z,102052.00
2023-02-09T04:46:17.956Z,102041.00
2023-02-09T04:48:45.939Z,102062.00
2023-02-09T04:51:13.451Z,102061.00
2023-02-09T04:53:40.385Z,102056.00
2023-02-09T04:56:07.559Z,102057.00
2023-02-09T04:58:53.199Z,102047.00
2023-02-09T05:01:23.927Z,102055.00
2023-02-09T05:03:51.607Z,102050.00
2023-02-09T05:06:19.533Z,102033.00
2023-02-09T05:08:46.836Z,102049.00
2023-02-09T05:11:13.705Z,102042.00
2023-02-09T05:13:40.685Z,102029.00
2023-02-09T05:16:10.342Z,102023.00
2023-02-09T05:18:37.182Z,102030.00
2023-02-09T05:21:04.346Z,102007.00
2023-02-09T05:23:31.313Z,102007.00
2023-02-09T05:25:58.353Z,102011.00
2023-02-09T05:28:25.840Z,102015.00
2023-02-09T05:30:53.985Z,102013.00
2023-02-09T05:33:25.844Z,102007.00
2023-02-09T05:35:55.851Z,102009.00
2023-02-09T05:38:23.419Z,102009.00
2023-02-09T05:40:50.985Z,102006.00
2023-02-09T05:43:18.555Z,102004.00
2023-02-09T05:45:46.641Z,101975.00
2023-02-09T05:48:13.648Z,101988.00
2023-02-09T05:50:40.486Z,101982.00
2023-02-09T05:53:08.615Z,101983.00
2023-02-09T05:55:35.659Z,101981.00
2023-02-09T05:58:02.500Z,101976.00
2023-02-09T06:00:29.916Z,101983.00
2023-02-09T06:02:57.102Z,101965.00
2023-02-09T06:05:24.565Z,101964.00
2023-02-09T06:07:51.492Z,101966.00
2023-02-09T06:10:18.780Z,101964.00
2023-02-09T06:12:45.737Z,101969.00
2023-02-09T06:15:13.030Z,101974.00
2023-02-09T06:17:39.869Z,101965.00
2023-02-09T06:20:07.343Z,101971.00
2023-02-09T06:22:34.458Z,101951.00
2023-02-09T06:25:01.296Z,101959.00
2023-02-09T06:27:28.131Z,101968.00
2023-02-09T06:29:55.037Z,101975.00
2023-02-09T06:32:21.870Z,101976.00
2023-02-09T06:34:48.696Z,101978.00
2023-02-09T06:37:16.637Z,101975.00
2023-02-09T06:39:43.530Z,101976.00
2023-02-09T06:42:10.360Z,101969.00
2023-02-09T06:44:37.156Z,101979.00
2023-02-09T06:47:04.743Z,101985.00
2023-02-09T06:49:31.577Z,101971.00
2023-02-09T06:51:58.616Z,101979.00
2023-02-09T06:54:25.798Z,101974.00
2023-02-09T06:56:52.635Z,101982.00
2023-02-09T06:59:19.738Z,101975.00
2023-02-09T07:01:48.976Z,101966.00
2023-02-09T07:04:15.829Z,101967.00
2023-02-09T07:06:42.699Z,101976.00
2023-02-09T07:09:09.588Z,101960.00
2023-02-09T07:11:36.986Z,101964.00
2023-02-09T07:14:03.795Z,101963.00
2023-02-09T07:16:30.633Z,101972.00
2023-02-09T07:19:00.467Z,101974.00
2023-02-09T07:21:27.404Z,101968.00
2023-02-09T07:23:54.186Z,101968.00
2023-02-09T07:26:21.094Z,101971.00
2023-02-09T07:28:48.134Z,101981.00
2023-02-09T07:31:17.028Z,101965.00
2023-02-09T07:33:44.437Z,101977.00
2023-02-09T07:36:14.914Z,101968.00
2023-02-09T07:38:42.361Z,101971.00
2023-02-09T07:41:20.201Z,101968.00
2023-02-09T07:43:47.696Z,101966.00
2023-02-09T07:46:17.840Z,101965.00
2023-02-09T07:48:44.829Z,101964.00
2023-02-09T07:51:25.139Z,101964.00
2023-02-09T07:53:53.460Z,101975.00
2023-02-09T07:56:20.673Z,101975.00
2023-02-09T07:58:47.584Z,101968.00
2023-02-09T08:01:15.861Z,101970.00
2023-02-09T08:03:46.663Z,101950.00
2023-02-09T08:06:26.051Z,101968.00
2023-02-09T08:08:57.290Z,101970.00
2023-02-09T08:11:40.179Z,101963.00
2023-02-09T08:14:20.705Z,101975.00
2023-02-09T08:16:49.951Z,101970.00
2023-02-09T08:19:23.395Z,101961.00
2023-02-09T08:21:51.849Z,101952.00
2023-02-09T08:24:21.566Z,101956.00
2023-02-09T08:26:51.214Z,101958.00
2023-02-09T08:29:18.288Z,101956.00
2023-02-09T08:31:45.387Z,101958.00
2023-02-09T08:34:12.314Z,101955.00
2023-02-09T08:36:41.425Z,101950.00
2023-02-09T08:39:09.702Z,101951.00
2023-02-09T08:41:36.565Z,101946.00
2023-02-09T08:44:03.722Z,101942.00
2023-02-09T08:46:30.910Z,101944.00
2023-02-09T08:48:57.921Z,101935.00
2023-02-09T08:51:24.764Z,101950.00
2023-02-09T08:53:52.587Z,101945.00
2023-02-09T08:56:21.945Z,101900.00
2023-02-09T08:58:49.991Z,101941.00
2023-02-09T09:01:16.965Z,101938.00
2023-02-09T09:03:43.966Z,101930.00
2023-02-09T09:06:12.357Z,101951.00
2023-02-09T09:08:40.810Z,101940.00
2023-02-09T09:11:12.852Z,101945.00
2023-02-09T09:13:41.581Z,101951.00
2023-02-09T09:16:19.781Z,101955.00
2023-02-09T09:18:47.141Z,101954.00
2023-02-09T09:21:16.911Z,101955.00
2023-02-09T09:23:46.361Z,101955.00
2023-02-09T09:26:15.714Z,101958.00
2023-02-09T09:28:43.354Z,101942.00
2023-02-09T09:31:16.617Z,101956.00
2023-02-09T09:33:45.902Z,101944.00
2023-02-09T09:36:14.710Z,101946.00
2023-02-09T09:38:41.702Z,101935.00
2023-02-09T09:41:41.091Z,101935.00
2023-02-09T09:44:27.312Z,101891.00
2023-02-09T09:47:00.982Z,101927.00
2023-02-09T09:49:31.440Z,101921.00
2023-02-09T09:52:12.818Z,101921.00
2023-02-09T09:54:42.195Z,101920.00
2023-02-09T09:57:28.789Z,101870.00
2023-02-09T09:59:57.590Z,101907.00
2023-02-09T10:02:33.183Z,101902.00
2023-02-09T10:05:17.540Z,101909.00
2023-02-09T10:07:59.572Z,101893.00
2023-02-09T10:11:05.144Z,101896.00
2023-02-09T10:13:51.549Z,101906.00
2023-02-09T10:16:25.425Z,101903.00
2023-02-09T10:19:05.950Z,101903.00
2023-02-09T10:21:36.228Z,101896.00
2023-02-09T10:24:12.292Z,101883.00
2023-02-09T10:26:40.751Z,101883.00
2023-02-09T10:29:29.263Z,101874.00
2023-02-09T10:32:20.179Z,101859.00
2023-02-09T10:34:53.753Z,101865.00
2023-02-09T10:37:38.852Z,101864.00
2023-02-09T10:40:17.282Z,101856.00
2023-02-09T10:42:57.380Z,101854.00
2023-02-09T10:45:41.142Z,101855.00
2023-02-09T10:48:19.250Z,101836.00
2023-02-09T10:51:18.900Z,101830.00
2023-02-09T10:54:19.334Z,101823.00
2023-02-09T10:56:49.259Z,101827.00
2023-02-09T10:59:22.857Z,101805.00
2023-02-09T11:02:02.043Z,101807.00
2023-02-09T11:04:40.651Z,101810.00
2023-02-09T11:07:19.512Z,101808.00
2023-02-09T11:09:50.763Z,101799.00
2023-02-09T11:12:20.479Z,101802.00
2023-02-09T11:14:47.338Z,101791.00
2023-02-09T11:17:29.658Z,101791.00
2023-02-09T11:20:30.771Z,101796.00
2023-02-09T11:23:31.633Z,101785.00
2023-02-09T11:26:10.535Z,101772.00
2023-02-09T11:29:20.731Z,101776.00
2023-02-09T11:32:12.211Z,101763.00
2023-02-09T11:35:16.302Z,101755.00
2023-02-09T11:38:11.629Z,101724.00
2023-02-09T11:40:46.193Z,101742.00
2023-02-09T11:43:24.718Z,101735.00
2023-02-09T11:46:00.391Z,101733.00
2023-02-09T11:48:45.644Z,101729.00
2023-02-09T11:51:21.013Z,101724.00
2023-02-09T11:54:14.254Z,101719.00
2023-02-09T11:56:55.884Z,101709.00
2023-02-09T11:59:45.706Z,101696.00
2023-02-09T12:02:47.319Z,101696.00
2023-02-09T12:05:19.917Z,101671.00
2023-02-09T12:07:58.437Z,101693.00
2023-02-09T12:10:42.170Z,101677.00
2023-02-09T12:13:20.478Z,101674.00
2023-02-09T12:16:17.924Z,101672.00
2023-02-09T12:18:46.390Z,101661.00
2023-02-09T12:21:23.975Z,101649.00
2023-02-09T12:23:50.847Z,101652.00
2023-02-09T12:26:17.612Z,101640.00
2023-02-09T12:29:03.357Z,101647.00
2023-02-09T12:32:04.274Z,101635.00
2023-02-09T12:34:42.530Z,101602.00
2023-02-09T12:37:29.543Z,101647.00
2023-02-09T12:40:11.240Z,101660.00
2023-02-09T12:42:45.989Z,101663.00
2023-02-09T12:45:38.332Z,101652.00
2023-02-09T12:48:07.954Z,101645.00
2023-02-09T12:50:43.738Z,101635.00
2023-02-09T12:53:23.014Z,101631.00
2023-02-09T12:56:27.102Z,101622.00
2023-02-09T12:59:12.736Z,101590.00
2023-02-09T13:02:07.724Z,101638.00
2023-02-09T13:05:18.278Z,101630.00
2023-02-09T13:08:13.209Z,101631.00
2023-02-09T13:11:14.039Z,101626.00
2023-02-09T13:13:51.120Z,101632.00
2023-02-09T13:16:36.490Z,101633.00
2023-02-09T13:19:51.846Z,101628.00
2023-02-09T13:22:28.159Z,101634.00
2023-02-09T13:25:18.190Z,101625.00
2023-02-09T13:27:49.473Z,101622.00
2023-02-09T13:30:32.335Z,101631.00
2023-02-09T13:33:35.326Z,101619.00
2023-02-09T13:36:24.976Z,101634.00
2023-02-09T13:38:53.066Z,101636.00
2023-02-09T13:41:39.176Z,101620.00
2023-02-09T13:44:32.040Z,101623.00
2023-02-09T13:47:07.171Z,101612.00
2023-02-09T13:49:34.116Z,101607.00
2023-02-09T13:52:20.848Z,101589.00
2023-02-09T13:54:47.902Z,101597.00
2023-02-09T13:57:28.637Z,101597.00
2023-02-09T14:00:01.846Z,101602.00
2023-02-09T14:02:28.918Z,101594.00
2023-02-09T14:05:01.927Z,101607.00
2023-02-09T14:07:33.256Z,101592.00
2023-02-09T14:10:21.208Z,101595.00
2023-02-09T14:13:00.679Z,101594.00
2023-02-09T14:16:03.925Z,101583.00
2023-02-09T14:18:45.954Z,101592.00
2023-02-09T14:21:15.491Z,101584.00
2023-02-09T14:23:49.284Z,101584.00
2023-02-09T14:26:24.674Z,101574.00
2023-02-09T14:29:17.596Z,101581.00
2023-02-09T14:31:52.365Z,101581.00
2023-02-09T14:34:38.998Z,101580.00
2023-02-09T14:37:11.939Z,101580.00
2023-02-09T14:39:57.318Z,101583.00
2023-02-09T14:42:24.381Z,101589.00
2023-02-09T14:44:58.464Z,101583.00
2023-02-09T14:47:40.363Z,101586.00
2023-02-09T14:50:12.705Z,101589.00
2023-02-09T14:52:46.707Z,101552.00
2023-02-09T14:55:27.052Z,101599.00
2023-02-09T14:57:54.062Z,101601.00
2023-02-09T15:00:30.546Z,101609.00
2023-02-09T15:02:59.941Z,101605.00
2023-02-09T15:05:28.955Z,101600.00
2023-02-09T15:08:05.784Z,101619.00
2023-02-09T15:10:42.873Z,101558.00
2023-02-09T15:13:15.158Z,101615.00
2023-02-09T15:15:43.246Z,101613.00
2023-02-09T15:18:40.343Z,101576.00
2023-02-09T15:21:07.166Z,101615.00
2023-02-09T15:23:33.955Z,101609.00
2023-02-09T15:26:01.720Z,101604.00
2023-02-09T15:28:29.780Z,101605.00
2023-02-09T15:30:58.805Z,101596.00
2023-02-09T15:33:27.267Z,101600.00
2023-02-09T15:35:54.867Z,101591.00
2023-02-09T15:38:21.959Z,101595.00
2023-02-09T15:41:10.131Z,101592.00
2023-02-09T15:43:55.639Z,101581.00
2023-02-09T15:46:41.245Z,101570.00
2023-02-09T15:49:08.200Z,101565.00
2023-02-09T15:51:38.760Z,101558.00
2023-02-09T15:54:18.883Z,101553.00
2023-02-09T15:56:46.273Z,101547.00
2023-02-09T15:59:22.765Z,101535.00
2023-02-09T16:01:50.782Z,101529.00
2023-02-09T16:04:18.199Z,101540.00
2023-02-09T16:06:55.127Z,101546.00
2023-02-09T16:09:28.090Z,101545.00
2023-02-09T16:11:55.295Z,101540.00
2023-02-09T16:14:26.909Z,101532.00
2023-02-09T16:16:53.856Z,101535.00
2023-02-09T16:19:22.117Z,101539.00
2023-02-09T16:21:58.295Z,101535.00
2023-02-09T16:25:00.819Z,101514.00
2023-02-09T16:27:28.998Z,101518.00
2023-02-09T16:29:58.585Z,101504.00
2023-02-09T16:32:28.617Z,101497.00
2023-02-09T16:35:07.310Z,101490.00
2023-02-09T16:37:34.741Z,101487.00
2023-02-09T16:40:02.224Z,101494.00
2023-02-09T16:42:29.693Z,101487.00
2023-02-09T16:44:56.970Z,101466.00
2023-02-09T16:47:28.475Z,101475.00
2023-02-09T16:50:13.391Z,101494.00
2023-02-09T16:52:43.862Z,101510.00
2023-02-09T16:55:22.444Z,101515.00
2023-02-09T16:57:51.426Z,101503.00
2023-02-09T17:00:18.839Z,101487.00
2023-02-09T17:03:15.418Z,101481.00
2023-02-09T17:05:47.996Z,101469.00
2023-02-09T17:08:22.047Z,101462.00
2023-02-09T17:10:53.013Z,101425.00
2023-02-09T17:13:23.034Z,101471.00
2023-02-09T17:15:57.550Z,101480.00
2023-02-09T17:18:28.600Z,101480.00
2023-02-09T17:21:04.226Z,101491.00
2023-02-09T17:23:31.414Z,101481.00
2023-02-09T17:25:59.101Z,101486.00
2023-02-09T17:28:27.600Z,101464.00
2023-02-09T17:31:02.339Z,101485.00
2023-02-09T17:33:35.145Z,101470.00
2023-02-09T17:36:26.313Z,101462.00
2023-02-09T17:38:51.621Z,101454.00
2023-02-09T17:41:28.590Z,101444.00
2023-02-09T17:44:13.923Z,101436.00
2023-02-09T17:46:46.764Z,101431.00
2023-02-09T17:49:13.863Z,101429.00
2023-02-09T17:51:44.480Z,101422.00
2023-02-09T17:54:15.296Z,101417.00
2023-02-09T17:56:42.976Z,101422.00
2023-02-09T17:59:10.456Z,101409.00
2023-02-09T18:01:45.110Z,101398.00
2023-02-09T18:04:26.871Z,101400.00
2023-02-09T18:06:56.627Z,101400.00
2023-02-09T18:09:24.515Z,101409.00
2023-02-09T18:11:52.230Z,101393.00
2023-02-09T18:14:22.237Z,101387.00
2023-02-09T18:16:50.267Z,101397.00
2023-02-09T18:19:17.421Z,101389.00
2023-02-09T18:21:59.859Z,101378.00
2023-02-09T18:24:31.752Z,101384.00
2023-02-09T18:26:59.130Z,101396.00
2023-02-09T18:29:29.315Z,101395.00
2023-02-09T18:31:58.775Z,101407.00
2023-02-09T18:34:27.038Z,101414.00
2023-02-09T18:36:54.161Z,101402.00
2023-02-09T18:39:21.414Z,101400.00
2023-02-09T18:41:54.843Z,101400.00
2023-02-09T18:44:28.647Z,101399.00
2023-02-09T18:46:57.963Z,101385.00
2023-02-09T18:49:26.141Z,101384.00
2023-02-09T18:51:53.645Z,101382.00
2023-02-09T18:54:22.142Z,101392.00
2023-02-09T18:56:49.091Z,101381.00
2023-02-09T18:59:17.701Z,101381.00
2023-02-09T19:01:45.181Z,101390.00
2023-02-09T19:04:13.364Z,101383.00
2023-02-09T19:06:40.446Z,101377.00
2023-02-09T19:09:07.408Z,101370.00
2023-02-09T19:11:34.449Z,101367.00
2023-02-09T19:14:26.718Z,101365.00
2023-02-09T19:16:54.274Z,101366.00
2023-02-09T19:19:21.261Z,101358.00
2023-02-09T19:21:52.103Z,101359.00
2023-02-09T19:24:19.229Z,101350.00
2023-02-09T19:26:46.202Z,101382.00
2023-02-09T19:29:13.926Z,101370.00
2023-02-09T19:31:41.004Z,101371.00
2023-02-09T19:34:08.006Z,101377.00
2023-02-09T19:36:35.000Z,101378.00
2023-02-09T19:39:02.240Z,101369.00
2023-02-09T19:41:29.281Z,101347.00
2023-02-09T19:43:58.304Z,101328.00
2023-02-09T19:46:25.745Z,101361.00
2023-02-09T19:48:57.450Z,101358.00
2023-02-09T19:51:25.097Z,101343.00
2023-02-09T19:53:52.080Z,101355.00
2023-02-09T19:56:23.342Z,101342.00
2023-02-09T19:58:51.757Z,101339.00
2023-02-09T20:01:20.546Z,101345.00
2023-02-09T20:03:49.569Z,101336.00
2023-02-09T20:06:17.128Z,101334.00
2023-02-09T20:08:44.613Z,101339.00
2023-02-09T20:11:17.249Z,101355.00
2023-02-09T20:13:44.831Z,101337.00
2023-02-09T20:16:23.988Z,101328.00
2023-02-09T20:18:52.454Z,101324.00
2023-02-09T20:21:22.684Z,101309.00
2023-02-09T20:23:54.064Z,101307.00
2023-02-09T20:26:29.099Z,101308.00
2023-02-09T20:28:59.509Z,101320.00
2023-02-09T20:31:29.974Z,101314.00
2023-02-09T20:33:56.922Z,101312.00
2023-02-09T20:36:25.522Z,101298.00
2023-02-09T20:38:52.855Z,101308.00
2023-02-09T20:41:19.852Z,101298.00
2023-02-09T20:44:06.577Z,101309.00
2023-02-09T20:46:43.444Z,101310.00
2023-02-09T20:49:16.472Z,101318.00
2023-02-09T20:51:46.006Z,101310.00
2023-02-09T20:54:15.924Z,101289.00
2023-02-09T20:56:43.343Z,101299.00
2023-02-09T20:59:11.394Z,101285.00
2023-02-09T21:01:39.059Z,101276.00
2023-02-09T21:04:07.308Z,101275.00
2023-02-09T21:06:37.193Z,101282.00
2023-02-09T21:09:11.975Z,101292.00
2023-02-09T21:11:39.330Z,101277.00
2023-02-09T21:14:06.308Z,101294.00
2023-02-09T21:16:33.683Z,101275.00
2023-02-09T21:19:01.049Z,101272.00
2023-02-09T21:21:29.873Z,101279.00
2023-02-09T21:23:56.784Z,101261.00
2023-02-09T21:26:24.486Z,101271.00
2023-02-09T21:28:56.088Z,101258.00
2023-02-09T21:31:26.654Z,101260.00
2023-02-09T21:33:54.217Z,101259.00
2023-02-09T21:36:21.191Z,101240.00
2023-02-09T21:38:48.132Z,101253.00
2023-02-09T21:41:43.948Z,101257.00
2023-02-09T21:44:12.559Z,101257.00
2023-02-09T21:46:39.540Z,101247.00
2023-02-09T21:49:07.064Z,101240.00
2023-02-09T21:51:34.755Z,101241.00
2023-02-09T21:54:01.631Z,101233.00
2023-02-09T21:56:28.570Z,101236.00
2023-02-09T21:58:55.709Z,101227.00
2023-02-09T22:01:22.718Z,101225.00
2023-02-09T22:03:56.874Z,101238.00
2023-02-09T22:06:25.335Z,101225.00
2023-02-09T22:08:52.658Z,101240.00
2023-02-09T22:11:19.855Z,101244.00
2023-02-09T22:13:46.715Z,101243.00
2023-02-09T22:16:20.653Z,101239.00
2023-02-09T22:18:48.276Z,101249.00
2023-02-09T22:21:15.776Z,101207.00
2023-02-09T22:23:43.053Z,101243.00
2023-02-09T22:26:13.656Z,101230.00
2023-02-09T22:28:42.276Z,101236.00
2023-02-09T22:31:13.473Z,101244.00
2023-02-09T22:33:40.585Z,101244.00
2023-02-09T22:36:12.350Z,101254.00
2023-02-09T22:38:40.167Z,101246.00
2023-02-09T22:41:23.509Z,101239.00
2023-02-09T22:43:58.868Z,101231.00
2023-02-09T22:46:30.411Z,101175.00
2023-02-09T22:49:01.783Z,101215.00
2023-02-09T22:51:31.118Z,101217.00
2023-02-09T22:53:59.737Z,101202.00
2023-02-09T22:56:28.962Z,101213.00
2023-02-09T22:58:57.795Z,101164.00
2023-02-09T23:01:25.253Z,101213.00
2023-02-09T23:03:52.676Z,101210.00
2023-02-09T23:06:27.208Z,101214.00
2023-02-09T23:09:02.135Z,101214.00
2023-02-09T23:11:30.772Z,101208.00
2023-02-09T23:14:14.202Z,101203.00
2023-02-09T23:16:43.821Z,101192.00
2023-02-09T23:19:19.154Z,101197.00
2023-02-09T23:21:49.894Z,101185.00
2023-02-09T23:24:21.734Z,101183.00
2023-02-09T23:26:49.220Z,101186.00
2023-02-09T23:29:17.553Z,101200.00
2023-02-09T23:31:46.454Z,101193.00
2023-02-09T23:34:22.681Z,101201.00
2023-02-09T23:36:49.920Z,101207.00
2023-02-09T23:39:21.300Z,101208.00
2023-02-09T23:41:48.373Z,101206.00
2023-02-09T23:44:15.264Z,101212.00
2023-02-09T23:46:42.357Z,101202.00
2023-02-09T23:49:09.284Z,101209.00
2023-02-09T23:51:37.565Z,101161.00
2023-02-09T23:54:07.271Z,101200.00
2023-02-09T23:56:37.219Z,101207.00
2023-02-09T23:59:07.385Z,101198.00
